Time;durP1;ratioP1;P1;durP2;ratioP2;P2;SDS_P1;SDS_P2;PMS_P1;PMS_P2;Temp;Humidity;BMP_temperature;BMP_pressure;BME280_temperature;BME280_humidity;BME280_pressure;Samples;Min_cycle;Max_cycle;Signal;HPM_P1;HPM_P2
2023/12/21 00:01:43;;;;;;;7.65;3.90;;;7.40;99.90;;;;;;5118760;27;20742;-72
2023/12/21 00:04:09;;;;;;;4.85;3.80;;;7.40;99.90;;;;;;5137474;27;20495;-73
2023/12/21 00:06:35;;;;;;;6.85;3.90;;;7.40;99.90;;;;;;5137244;27;20035;-73
2023/12/21 00:09:00;;;;;;;8.38;4.45;;;7.40;99.90;;;;;;5137390;27;20011;-72
2023/12/21 00:11:26;;;;;;;7.03;3.88;;;7.50;99.90;;;;;;5137120;27;20080;-72
2023/12/21 00:13:52;;;;;;;5.10;3.90;;;7.40;99.90;;;;;;5137455;27;20390;-73
2023/12/21 00:16:18;;;;;;;5.60;3.75;;;7.40;99.90;;;;;;5118049;27;20108;-72
2023/12/21 00:18:43;;;;;;;9.32;4.35;;;7.40;99.90;;;;;;5134795;27;20096;-72
2023/12/21 00:21:09;;;;;;;8.63;4.53;;;7.40;99.90;;;;;;5114807;27;20118;-73
2023/12/21 00:23:35;;;;;;;4.00;3.63;;;7.50;99.90;;;;;;5137046;27;20126;-73
2023/12/21 00:26:00;;;;;;;6.10;3.78;;;7.50;99.90;;;;;;5137312;27;20114;-73
2023/12/21 00:28:26;;;;;;;7.53;3.90;;;7.50;99.90;;;;;;5137003;27;20019;-72
2023/12/21 00:30:52;;;;;;;4.40;3.47;;;7.50;99.90;;;;;;5136875;27;20031;-74
2023/12/21 00:33:17;;;;;;;4.55;3.20;;;7.50;99.90;;;;;;5137164;27;20021;-72
2023/12/21 00:35:43;;;;;;;6.63;3.60;;;7.50;99.90;;;;;;5117815;27;20023;-73
2023/12/21 00:38:09;;;;;;;6.72;3.25;;;7.50;99.90;;;;;;5118265;27;20023;-73
2023/12/21 00:40:34;;;;;;;8.05;3.33;;;7.50;99.90;;;;;;5136689;27;20031;-72
2023/12/21 00:43:00;;;;;;;8.40;4.07;;;7.50;99.90;;;;;;5136828;27;20019;-72
2023/12/21 00:45:26;;;;;;;5.45;4.00;;;7.50;99.90;;;;;;5136854;27;20103;-72
2023/12/21 00:47:52;;;;;;;8.90;3.63;;;7.50;99.90;;;;;;5136824;27;20099;-72
2023/12/21 00:50:18;;;;;;;6.93;3.50;;;7.50;99.90;;;;;;5136780;27;20068;-73
2023/12/21 00:52:43;;;;;;;6.38;3.22;;;7.60;99.90;;;;;;5136638;27;20015;-72
2023/12/21 00:55:09;;;;;;;4.55;3.58;;;7.60;99.90;;;;;;5136348;27;20055;-73
2023/12/21 00:57:35;;;;;;;4.30;3.35;;;7.50;99.90;;;;;;5117921;27;20087;-72
2023/12/21 01:00:01;;;;;;;4.78;3.20;;;7.50;99.90;;;;;;5116875;27;20027;-72
2023/12/21 01:02:26;;;;;;;5.72;3.42;;;7.60;99.90;;;;;;5118076;28;20048;-73
2023/12/21 01:04:52;;;;;;;5.80;3.13;;;7.60;99.90;;;;;;5136493;27;20503;-72
2023/12/21 01:07:17;;;;;;;4.50;3.60;;;7.60;99.90;;;;;;5136328;27;20046;-72
2023/12/21 01:09:43;;;;;;;4.53;3.70;;;7.60;99.90;;;;;;5115876;28;20031;-72
2023/12/21 01:12:09;;;;;;;5.05;3.85;;;7.50;99.90;;;;;;5118056;28;20019;-72
2023/12/21 01:14:35;;;;;;;4.82;3.03;;;7.50;99.90;;;;;;5116071;28;20471;-73
2023/12/21 01:17:00;;;;;;;5.30;3.28;;;7.60;99.90;;;;;;5139553;27;20098;-73
2023/12/21 01:19:26;;;;;;;5.18;2.90;;;7.60;99.90;;;;;;5117692;27;20024;-73
2023/12/21 01:21:52;;;;;;;7.82;3.47;;;7.60;99.90;;;;;;5124528;27;20121;-72
2023/12/21 01:24:18;;;;;;;4.95;3.20;;;7.70;99.90;;;;;;5143097;27;20023;-72
2023/12/21 01:26:44;;;;;;;5.50;3.20;;;7.70;99.90;;;;;;5143102;27;20443;-72
2023/12/21 01:29:10;;;;;;;4.60;3.08;;;7.80;99.90;;;;;;5143208;27;20027;-72
2023/12/21 01:31:35;;;;;;;3.58;3.10;;;7.80;99.90;;;;;;5143093;27;20019;-73
2023/12/21 01:34:01;;;;;;;8.32;3.30;;;7.80;99.90;;;;;;5143171;27;20475;-72
2023/12/21 01:36:28;;;;;;;4.85;2.97;;;7.80;99.90;;;;;;5142963;27;20019;-72
2023/12/21 01:38:54;;;;;;;5.15;3.78;;;7.80;99.90;;;;;;5124593;27;20112;-73
2023/12/21 01:41:19;;;;;;;4.15;3.00;;;7.90;99.90;;;;;;5142620;27;20069;-72
2023/12/21 01:43:45;;;;;;;5.60;2.97;;;7.90;99.90;;;;;;5142979;27;20033;-73
2023/12/21 01:46:11;;;;;;;5.07;3.13;;;7.90;99.90;;;;;;5124296;27;20547;-72
2023/12/21 01:48:37;;;;;;;4.20;3.00;;;7.90;99.90;;;;;;5142899;27;20560;-72
2023/12/21 01:51:04;;;;;;;5.13;3.10;;;8.00;99.90;;;;;;5124406;27;20062;-72
2023/12/21 01:53:32;;;;;;;5.60;3.45;;;8.00;99.90;;;;;;5142743;27;20056;-72
2023/12/21 01:55:59;;;;;;;6.07;3.90;;;8.10;99.90;;;;;;5142733;27;20046;-73
2023/12/21 01:58:25;;;;;;;3.20;2.88;;;8.10;99.90;;;;;;5123073;27;20020;-73
2023/12/21 02:00:52;;;;;;;4.60;3.20;;;8.10;99.90;;;;;;5143025;27;20027;-73
2023/12/21 02:03:20;;;;;;;6.32;3.40;;;8.10;99.90;;;;;;5124911;27;20050;-72
2023/12/21 02:05:45;;;;;;;3.08;2.78;;;8.20;99.90;;;;;;5142811;27;20023;-73
2023/12/21 02:08:12;;;;;;;4.15;2.80;;;8.20;99.90;;;;;;5123416;27;20511;-73
2023/12/21 02:10:39;;;;;;;9.32;3.13;;;8.20;99.90;;;;;;5142428;27;20019;-72
2023/12/21 02:13:05;;;;;;;8.52;3.38;;;8.20;99.90;;;;;;5124120;27;20035;-72
2023/12/21 02:15:31;;;;;;;5.40;2.92;;;8.20;99.90;;;;;;5124170;27;20027;-72
2023/12/21 02:17:59;;;;;;;3.30;2.90;;;8.20;99.90;;;;;;5123784;27;20027;-72
2023/12/21 02:20:25;;;;;;;4.70;3.08;;;8.20;99.90;;;;;;5136105;27;20023;-72
2023/12/21 02:22:52;;;;;;;7.63;3.20;;;8.20;99.90;;;;;;5142509;27;20029;-73
2023/12/21 02:25:18;;;;;;;4.38;3.22;;;8.20;99.90;;;;;;5142490;27;20027;-72
2023/12/21 02:27:47;;;;;;;5.53;3.03;;;8.20;99.90;;;;;;5141424;27;20037;-72
2023/12/21 02:30:13;;;;;;;3.20;2.90;;;8.20;99.90;;;;;;5138514;27;20027;-72
2023/12/21 02:32:39;;;;;;;5.22;3.30;;;8.20;99.90;;;;;;5117421;28;20031;-73
2023/12/21 02:35:05;;;;;;;8.80;3.40;;;8.20;99.90;;;;;;5137518;27;20027;-72
2023/12/21 02:37:30;;;;;;;5.70;2.97;;;8.20;99.90;;;;;;5139153;27;20019;-72
2023/12/21 02:39:56;;;;;;;6.03;2.70;;;8.20;99.90;;;;;;5120344;27;20771;-72
2023/12/21 02:42:22;;;;;;;7.75;2.97;;;8.20;99.90;;;;;;5139089;27;20880;-73
2023/12/21 02:44:47;;;;;;;2.92;2.63;;;8.20;99.90;;;;;;5120541;27;20057;-73
2023/12/21 02:47:13;;;;;;;4.63;2.72;;;8.20;99.90;;;;;;5139135;27;20097;-72
2023/12/21 02:49:38;;;;;;;3.55;2.72;;;8.20;99.90;;;;;;5138799;27;20054;-72
2023/12/21 02:52:04;;;;;;;3.30;2.80;;;8.20;99.90;;;;;;5138948;27;20022;-72
2023/12/21 02:54:31;;;;;;;4.78;3.15;;;8.20;99.90;;;;;;5120107;27;20047;-72
2023/12/21 02:56:57;;;;;;;3.70;3.08;;;8.20;99.90;;;;;;5117039;28;20034;-73
2023/12/21 02:59:23;;;;;;;3.35;2.67;;;8.20;99.90;;;;;;5118043;27;20102;-72
2023/12/21 03:01:48;;;;;;;4.38;2.50;;;8.20;99.90;;;;;;5116910;28;20031;-72
2023/12/21 03:04:14;;;;;;;3.22;2.47;;;8.30;99.90;;;;;;5136470;27;20019;-72
2023/12/21 03:06:40;;;;;;;3.42;2.58;;;8.30;99.90;;;;;;5138731;27;20406;-71
2023/12/21 03:09:05;;;;;;;4.05;2.30;;;8.30;99.90;;;;;;5138285;27;20110;-71
2023/12/21 03:11:32;;;;;;;2.78;2.58;;;8.30;99.90;;;;;;5119874;27;20027;-72
2023/12/21 03:13:58;;;;;;;3.90;2.72;;;8.40;99.90;;;;;;5138561;27;20019;-73
2023/12/21 03:16:23;;;;;;;4.38;2.90;;;8.40;99.90;;;;;;5138583;27;20493;-72
2023/12/21 03:18:49;;;;;;;6.10;2.72;;;8.40;99.90;;;;;;5135088;27;20034;-71
2023/12/21 03:21:15;;;;;;;4.70;3.05;;;8.40;99.90;;;;;;5134838;27;20023;-73
2023/12/21 03:23:41;;;;;;;3.90;2.47;;;8.40;99.90;;;;;;5119599;27;20619;-72
2023/12/21 03:26:10;;;;;;;3.67;2.80;;;8.40;99.90;;;;;;5138124;27;20020;-72
2023/12/21 03:28:37;;;;;;;3.20;2.80;;;8.40;99.90;;;;;;5119816;27;20023;-71
2023/12/21 03:31:06;;;;;;;5.40;2.85;;;8.40;99.90;;;;;;5138080;27;20030;-72
2023/12/21 03:33:31;;;;;;;4.47;2.63;;;8.40;99.90;;;;;;5119707;27;20043;-71
2023/12/21 03:35:57;;;;;;;3.30;2.65;;;8.30;99.90;;;;;;5138044;27;20022;-72
2023/12/21 03:38:23;;;;;;;2.92;2.72;;;8.30;99.90;;;;;;5137868;27;20011;-72
2023/12/21 03:40:48;;;;;;;3.70;2.50;;;8.20;99.90;;;;;;5137420;27;20031;-72
2023/12/21 03:43:14;;;;;;;2.70;2.50;;;8.20;99.90;;;;;;5137778;27;20027;-71
2023/12/21 03:45:40;;;;;;;5.43;3.03;;;8.20;99.90;;;;;;5137976;27;20841;-72
2023/12/21 03:48:09;;;;;;;4.57;2.88;;;8.20;99.90;;;;;;5137960;27;20088;-70
2023/12/21 03:50:36;;;;;;;3.90;2.65;;;8.20;99.90;;;;;;5119196;27;20035;-71
2023/12/21 03:53:02;;;;;;;2.92;2.60;;;8.20;99.90;;;;;;5137698;27;20095;-72
2023/12/21 03:55:27;;;;;;;3.33;2.60;;;8.20;99.90;;;;;;5137493;27;20464;-72
2023/12/21 03:57:53;;;;;;;2.83;2.50;;;8.10;99.90;;;;;;5137742;27;20032;-72
2023/12/21 04:00:19;;;;;;;9.60;4.05;;;8.10;99.90;;;;;;5137801;27;20563;-71
2023/12/21 04:02:45;;;;;;;3.40;2.45;;;8.20;99.90;;;;;;5137724;27;20023;-73
2023/12/21 04:05:11;;;;;;;3.83;2.50;;;8.30;99.90;;;;;;5115645;28;20023;-72
2023/12/21 04:07:37;;;;;;;5.10;2.75;;;8.30;99.90;;;;;;5137244;27;20026;-72
2023/12/21 04:10:03;;;;;;;3.95;2.45;;;8.30;99.90;;;;;;5137083;27;20106;-71
2023/12/21 04:12:28;;;;;;;6.55;2.63;;;8.40;99.90;;;;;;5137468;27;20019;-72
2023/12/21 04:14:54;;;;;;;2.72;2.53;;;8.40;99.90;;;;;;5118828;27;20114;-72
2023/12/21 04:17:20;;;;;;;3.55;2.33;;;8.40;99.90;;;;;;5118786;27;20026;-72
2023/12/21 04:19:45;;;;;;;3.10;2.45;;;8.50;99.90;;;;;;5112288;27;20023;-72
2023/12/21 04:22:11;;;;;;;5.18;2.50;;;8.50;99.90;;;;;;5136861;27;20094;-72
2023/12/21 04:24:37;;;;;;;3.90;2.30;;;8.40;99.90;;;;;;5137156;27;20023;-72
2023/12/21 04:27:03;;;;;;;2.63;2.40;;;8.40;99.90;;;;;;5137127;27;20072;-72
2023/12/21 04:29:28;;;;;;;2.70;2.50;;;8.40;99.90;;;;;;5137087;27;20080;-71
2023/12/21 04:31:54;;;;;;;9.15;2.70;;;8.40;99.90;;;;;;5136884;27;20015;-72
2023/12/21 04:34:19;;;;;;;3.50;2.40;;;8.40;99.90;;;;;;5136971;27;20031;-72
2023/12/21 04:36:45;;;;;;;3.75;2.30;;;8.40;99.90;;;;;;5136841;27;20020;-73
2023/12/21 04:39:11;;;;;;;3.28;2.83;;;8.50;99.90;;;;;;5114916;28;20487;-71
2023/12/21 04:41:37;;;;;;;5.95;2.55;;;8.50;99.90;;;;;;5116898;27;20023;-72
2023/12/21 04:44:04;;;;;;;4.03;2.47;;;8.50;99.90;;;;;;5115054;28;20026;-72
2023/12/21 04:46:29;;;;;;;4.97;2.58;;;8.50;99.90;;;;;;5135772;27;20050;-72
2023/12/21 04:48:55;;;;;;;8.82;2.53;;;8.50;99.90;;;;;;5136723;27;20097;-71
2023/12/21 04:51:21;;;;;;;3.90;2.60;;;8.60;99.90;;;;;;5135787;27;20024;-71
2023/12/21 04:53:46;;;;;;;3.63;2.28;;;8.60;99.90;;;;;;5136622;27;20047;-72
2023/12/21 04:56:12;;;;;;;3.53;2.75;;;8.60;99.90;;;;;;5136542;27;20015;-72
2023/12/21 04:58:38;;;;;;;3.08;2.65;;;8.60;99.90;;;;;;5114759;28;20030;-72
2023/12/21 05:01:05;;;;;;;3.95;2.50;;;8.60;99.90;;;;;;5135312;27;20046;-72
2023/12/21 05:03:31;;;;;;;3.67;2.35;;;8.60;99.90;;;;;;5136678;27;20056;-71
2023/12/21 05:05:57;;;;;;;2.72;2.20;;;8.60;99.90;;;;;;5136629;27;20026;-72
2023/12/21 05:08:23;;;;;;;2.50;2.30;;;8.70;99.90;;;;;;5136506;27;20531;-71
2023/12/21 05:10:48;;;;;;;2.80;2.20;;;8.70;99.90;;;;;;5136120;27;20847;-72
2023/12/21 05:13:14;;;;;;;2.50;2.30;;;8.70;99.90;;;;;;5136530;27;20027;-71
2023/12/21 05:15:39;;;;;;;2.20;2.00;;;8.70;99.90;;;;;;5117666;28;20398;-71
2023/12/21 05:18:05;;;;;;;5.00;2.17;;;8.70;99.90;;;;;;5136449;28;20109;-72
2023/12/21 05:20:31;;;;;;;2.58;2.20;;;8.70;99.90;;;;;;5129476;28;20127;-72
2023/12/21 05:22:56;;;;;;;2.55;2.35;;;8.70;99.90;;;;;;5136397;28;20035;-71
2023/12/21 05:25:22;;;;;;;4.55;2.30;;;8.70;99.90;;;;;;5117611;28;20106;-72
2023/12/21 05:27:48;;;;;;;3.00;2.53;;;8.70;99.90;;;;;;5117917;28;20023;-71
2023/12/21 05:30:17;;;;;;;3.65;2.60;;;8.70;99.90;;;;;;5136182;28;20150;-72
2023/12/21 05:32:43;;;;;;;2.92;2.35;;;8.70;99.90;;;;;;5133414;28;20386;-71
2023/12/21 05:35:09;;;;;;;2.63;2.20;;;8.70;99.90;;;;;;5117759;28;20074;-71
2023/12/21 05:37:34;;;;;;;2.53;2.33;;;8.70;99.90;;;;;;5114300;28;20559;-70
2023/12/21 05:40:00;;;;;;;8.85;2.63;;;8.70;99.90;;;;;;5135198;28;20023;-72
2023/12/21 05:42:26;;;;;;;4.25;2.33;;;8.80;99.90;;;;;;5114163;28;20028;-71
2023/12/21 05:44:52;;;;;;;3.55;2.30;;;8.70;99.90;;;;;;5117032;28;20510;-71
2023/12/21 05:47:18;;;;;;;6.03;2.17;;;8.80;99.90;;;;;;5136192;28;20395;-71
2023/12/21 05:49:43;;;;;;;2.50;2.10;;;8.80;99.90;;;;;;5117464;28;20076;-71
2023/12/21 05:52:12;;;;;;;2.40;2.20;;;8.80;99.90;;;;;;5136108;28;20023;-71
2023/12/21 05:54:38;;;;;;;5.10;2.40;;;8.90;99.90;;;;;;5135483;28;20036;-72
2023/12/21 05:57:04;;;;;;;5.18;2.75;;;8.90;99.90;;;;;;5136017;28;20026;-73
2023/12/21 05:59:30;;;;;;;11.30;3.85;;;9.00;99.90;;;;;;5117519;28;20008;-72
2023/12/21 06:01:55;;;;;;;5.13;2.10;;;9.00;99.90;;;;;;5136142;28;20057;-72
2023/12/21 06:04:21;;;;;;;2.30;2.10;;;9.00;99.90;;;;;;5139521;27;20026;-73
2023/12/21 06:06:47;;;;;;;4.38;2.28;;;9.00;99.90;;;;;;5139782;27;20111;-72
2023/12/21 06:09:13;;;;;;;4.80;2.80;;;9.00;99.90;;;;;;5139637;27;20024;-72
2023/12/21 06:11:39;;;;;;;2.40;2.20;;;9.00;99.90;;;;;;5117853;28;20054;-72
2023/12/21 06:14:04;;;;;;;4.65;2.30;;;8.90;99.90;;;;;;5138490;27;20015;-72
2023/12/21 06:16:30;;;;;;;2.60;2.40;;;8.90;99.90;;;;;;5139728;27;20202;-72
2023/12/21 06:18:56;;;;;;;2.75;2.28;;;8.90;99.90;;;;;;5135425;27;20391;-72
2023/12/21 06:21:23;;;;;;;4.15;2.03;;;8.90;99.90;;;;;;5114922;28;20053;-72
2023/12/21 06:23:49;;;;;;;4.95;2.35;;;8.90;99.90;;;;;;5138216;27;20479;-73
2023/12/21 06:26:15;;;;;;;3.70;2.17;;;8.90;99.90;;;;;;5139409;27;20081;-73
2023/12/21 06:28:41;;;;;;;2.60;2.40;;;8.90;99.90;;;;;;5139564;27;20055;-73
2023/12/21 06:31:07;;;;;;;2.45;2.22;;;8.90;99.90;;;;;;5117551;28;20032;-72
2023/12/21 06:33:32;;;;;;;4.40;2.80;;;8.90;99.90;;;;;;5120369;27;20019;-73
2023/12/21 06:35:58;;;;;;;4.38;2.28;;;8.90;99.90;;;;;;5139323;27;20059;-73
2023/12/21 06:38:23;;;;;;;3.03;2.30;;;8.90;99.90;;;;;;5120649;27;20075;-72
2023/12/21 06:40:50;;;;;;;2.70;2.13;;;8.90;99.90;;;;;;5138929;27;20034;-72
2023/12/21 06:43:15;;;;;;;2.00;1.90;;;8.90;99.90;;;;;;5130786;27;20097;-72
2023/12/21 06:45:41;;;;;;;2.70;2.08;;;8.90;99.90;;;;;;5135253;27;20038;-72
2023/12/21 06:48:07;;;;;;;6.75;2.53;;;9.00;99.90;;;;;;5138592;27;20034;-72
2023/12/21 06:50:32;;;;;;;3.28;3.00;;;8.90;99.90;;;;;;5116062;28;20038;-73
2023/12/21 06:52:59;;;;;;;3.05;2.10;;;9.00;99.90;;;;;;5137012;27;20112;-72
2023/12/21 06:55:25;;;;;;;2.38;2.17;;;9.00;99.90;;;;;;5116707;28;20051;-72
2023/12/21 06:57:50;;;;;;;4.93;2.30;;;9.00;99.90;;;;;;5132642;27;20016;-72
2023/12/21 07:00:17;;;;;;;2.30;2.10;;;9.00;99.90;;;;;;5114631;28;20031;-73
2023/12/21 07:02:42;;;;;;;3.22;2.72;;;9.00;99.90;;;;;;5137353;27;20042;-74
2023/12/21 07:05:08;;;;;;;4.20;3.15;;;9.00;99.90;;;;;;5116911;28;20479;-73
2023/12/21 07:07:34;;;;;;;2.70;2.50;;;9.00;99.90;;;;;;5132415;27;20068;-73
2023/12/21 07:09:59;;;;;;;3.63;2.45;;;9.00;99.90;;;;;;5136054;27;20394;-72
2023/12/21 07:12:27;;;;;;;2.72;2.30;;;9.00;99.90;;;;;;5119919;27;20050;-73
2023/12/21 07:14:53;;;;;;;2.30;2.10;;;9.00;99.90;;;;;;5137717;27;20072;-75
2023/12/21 07:17:18;;;;;;;2.55;2.30;;;9.00;99.90;;;;;;5120184;27;20027;-74
2023/12/21 07:19:44;;;;;;;2.20;2.00;;;9.00;99.90;;;;;;5131894;27;20399;-75
2023/12/21 07:22:10;;;;;;;2.60;2.35;;;9.10;99.90;;;;;;5138343;27;20022;-73
2023/12/21 07:24:36;;;;;;;3.33;2.40;;;9.10;99.90;;;;;;5138272;27;20027;-75
2023/12/21 07:27:03;;;;;;;3.00;2.70;;;9.10;99.90;;;;;;5138392;27;20032;-75
2023/12/21 07:29:29;;;;;;;3.05;2.75;;;9.10;99.90;;;;;;5138415;27;20491;-74
2023/12/21 07:31:54;;;;;;;3.10;2.50;;;9.10;99.90;;;;;;5138409;27;20091;-75
2023/12/21 07:34:20;;;;;;;4.03;2.65;;;9.10;99.90;;;;;;5116440;28;20028;-75
2023/12/21 07:36:46;;;;;;;3.42;2.40;;;9.10;99.90;;;;;;5136256;27;20023;-74
2023/12/21 07:39:11;;;;;;;2.70;2.50;;;9.10;99.90;;;;;;5137957;27;20027;-75
2023/12/21 07:41:37;;;;;;;3.90;2.40;;;9.20;99.90;;;;;;5137977;27;20031;-75
2023/12/21 07:44:03;;;;;;;5.10;2.88;;;9.20;99.90;;;;;;5138054;27;20035;-72
2023/12/21 07:46:29;;;;;;;3.28;2.97;;;9.30;99.90;;;;;;5119286;27;20529;-74
2023/12/21 07:48:54;;;;;;;3.47;2.22;;;9.20;99.90;;;;;;5115922;28;20411;-74
2023/12/21 07:51:20;;;;;;;2.42;2.22;;;9.20;99.90;;;;;;5135688;27;20359;-72
2023/12/21 07:53:46;;;;;;;4.40;2.63;;;9.30;99.90;;;;;;5115686;28;20035;-73
2023/12/21 07:56:11;;;;;;;2.95;2.38;;;9.30;99.90;;;;;;5135439;27;20019;-73
2023/12/21 07:58:37;;;;;;;5.18;2.85;;;9.30;99.90;;;;;;5131511;27;20043;-72
2023/12/21 08:01:03;;;;;;;5.05;3.50;;;9.30;99.90;;;;;;5113010;27;20031;-72
2023/12/21 08:03:28;;;;;;;2.20;2.00;;;9.30;99.90;;;;;;5132185;27;20027;-73
2023/12/21 08:05:55;;;;;;;4.00;2.22;;;9.40;99.90;;;;;;5133363;27;20027;-74
2023/12/21 08:08:21;;;;;;;2.40;2.00;;;9.40;99.90;;;;;;5105707;27;20826;-74
2023/12/21 08:10:46;;;;;;;4.25;2.70;;;9.40;99.90;;;;;;5108146;28;20026;-74
2023/12/21 08:13:13;;;;;;;3.13;2.20;;;9.50;99.90;;;;;;5130063;27;20023;-74
2023/12/21 08:15:39;;;;;;;3.35;2.20;;;9.50;99.90;;;;;;5114108;27;20027;-74
2023/12/21 08:18:05;;;;;;;2.30;2.10;;;9.50;99.90;;;;;;5110838;28;20026;-74
2023/12/21 08:20:33;;;;;;;3.72;2.40;;;9.50;99.90;;;;;;5107943;27;20394;-74
2023/12/21 08:23:02;;;;;;;2.20;2.00;;;9.50;99.90;;;;;;5132586;27;20023;-74
2023/12/21 08:25:29;;;;;;;3.03;2.72;;;9.50;99.90;;;;;;5132319;27;20019;-73
2023/12/21 08:27:54;;;;;;;3.85;2.30;;;9.60;99.90;;;;;;5129778;27;20035;-74
2023/12/21 08:30:20;;;;;;;2.80;2.60;;;9.60;99.90;;;;;;5109791;27;20080;-74
2023/12/21 08:32:46;;;;;;;2.92;2.30;;;9.60;99.90;;;;;;5130379;27;21166;-73
2023/12/21 08:35:12;;;;;;;4.05;2.42;;;9.60;99.90;;;;;;5109698;28;20392;-76
2023/12/21 08:37:37;;;;;;;4.45;3.20;;;9.60;99.90;;;;;;5127837;27;20122;-73
2023/12/21 08:40:03;;;;;;;6.53;3.38;;;9.70;99.90;;;;;;5106217;28;20039;-73
2023/12/21 08:42:30;;;;;;;3.00;2.60;;;9.70;99.90;;;;;;5129733;27;20037;-73
2023/12/21 08:44:58;;;;;;;4.05;3.65;;;9.70;99.90;;;;;;5108813;28;20050;-75
2023/12/21 08:47:23;;;;;;;5.25;3.22;;;9.70;99.90;;;;;;5131016;27;20382;-74
2023/12/21 08:49:49;;;;;;;3.22;2.80;;;9.70;99.90;;;;;;5102175;28;20027;-74
2023/12/21 08:52:15;;;;;;;2.88;2.55;;;9.70;99.90;;;;;;5107901;27;20511;-75
2023/12/21 08:54:41;;;;;;;3.20;2.80;;;9.80;99.90;;;;;;5131415;27;20051;-75
2023/12/21 08:57:07;;;;;;;2.70;2.50;;;9.80;99.90;;;;;;5131889;27;20050;-74
2023/12/21 08:59:32;;;;;;;2.20;2.00;;;9.80;99.90;;;;;;5112186;27;20119;-73
2023/12/21 09:01:58;;;;;;;3.80;2.28;;;9.80;99.90;;;;;;5130880;27;20562;-74
2023/12/21 09:04:24;;;;;;;4.38;2.50;;;9.90;99.90;;;;;;5131358;27;20372;-73
2023/12/21 09:06:50;;;;;;;3.35;2.33;;;9.90;99.90;;;;;;5112858;28;20049;-73
2023/12/21 09:09:16;;;;;;;2.38;2.17;;;10.00;99.90;;;;;;5129347;27;20536;-73
2023/12/21 09:11:42;;;;;;;3.58;2.15;;;9.90;99.90;;;;;;5131611;27;20083;-73
2023/12/21 09:14:08;;;;;;;2.67;2.20;;;10.00;99.90;;;;;;5113247;28;20046;-75
2023/12/21 09:16:34;;;;;;;2.45;2.15;;;10.00;99.90;;;;;;5130089;28;20023;-74
2023/12/21 09:19:00;;;;;;;2.72;2.28;;;10.00;99.90;;;;;;5130603;28;20019;-74
2023/12/21 09:21:27;;;;;;;2.60;2.13;;;10.00;99.90;;;;;;5109675;28;20030;-74
2023/12/21 09:23:53;;;;;;;3.90;2.33;;;10.00;99.90;;;;;;5127021;28;20495;-74
2023/12/21 09:26:18;;;;;;;2.50;2.17;;;10.00;99.90;;;;;;5129662;28;20444;-74
2023/12/21 09:28:45;;;;;;;4.32;2.13;;;10.00;99.90;;;;;;5109691;28;20081;-74
2023/12/21 09:31:10;;;;;;;5.50;2.72;;;10.00;99.90;;;;;;5112321;28;20142;-76
2023/12/21 09:33:38;;;;;;;5.13;2.78;;;9.90;99.90;;;;;;5130314;28;20102;-76
2023/12/21 09:36:04;;;;;;;2.92;2.58;;;9.90;99.90;;;;;;5133016;28;20019;-76
2023/12/21 09:38:31;;;;;;;5.25;2.72;;;9.90;99.90;;;;;;5110204;27;20027;-76
2023/12/21 09:40:58;;;;;;;4.50;3.13;;;9.90;99.90;;;;;;5109835;27;20509;-77
2023/12/21 09:43:24;;;;;;;5.43;2.78;;;9.90;99.90;;;;;;5136249;27;20023;-76
2023/12/21 09:45:53;;;;;;;7.43;2.92;;;9.90;99.90;;;;;;5136855;27;20027;-76
2023/12/21 09:48:22;;;;;;;5.55;2.42;;;9.90;99.90;;;;;;5137275;27;20053;-75
2023/12/21 09:50:49;;;;;;;5.25;2.80;;;9.90;99.90;;;;;;5138800;27;20037;-76
2023/12/21 09:53:22;;;;;;;10.80;3.22;;;10.00;99.90;;;;;;5138316;27;20023;-77
2023/12/21 09:55:49;;;;;;;5.18;2.80;;;10.00;99.90;;;;;;5136038;27;20032;-83
2023/12/21 09:58:15;;;;;;;5.00;2.20;;;10.00;99.90;;;;;;5116036;27;20503;-76
2023/12/21 10:00:41;;;;;;;4.20;3.45;;;10.10;99.90;;;;;;5121591;27;20054;-77
2023/12/21 10:03:07;;;;;;;4.07;2.72;;;10.10;99.90;;;;;;5138884;27;20027;-76
2023/12/21 10:05:33;;;;;;;3.10;2.15;;;10.20;99.90;;;;;;5138981;27;20023;-77
2023/12/21 10:07:59;;;;;;;3.40;2.60;;;10.20;99.90;;;;;;5119245;27;20057;-75
2023/12/21 10:10:26;;;;;;;11.23;3.60;;;10.30;99.90;;;;;;5119831;27;20023;-75
2023/12/21 10:12:52;;;;;;;3.42;2.30;;;10.40;99.90;;;;;;5120161;27;20023;-75
2023/12/21 10:15:19;;;;;;;3.70;2.20;;;10.40;99.90;;;;;;5138705;27;20022;-76
2023/12/21 10:17:45;;;;;;;7.88;3.15;;;10.40;99.90;;;;;;5137855;27;20026;-75
2023/12/21 10:20:11;;;;;;;4.00;2.63;;;10.50;99.90;;;;;;5136286;27;20023;-74
2023/12/21 10:22:42;;;;;;;4.13;2.38;;;10.50;99.90;;;;;;5138320;27;20052;-75
2023/12/21 10:25:09;;;;;;;2.30;2.03;;;10.50;99.90;;;;;;5119377;27;20023;-77
2023/12/21 10:27:36;;;;;;;4.05;2.58;;;10.50;99.90;;;;;;5136753;27;20023;-76
2023/12/21 10:30:03;;;;;;;2.10;1.90;;;10.50;99.90;;;;;;5119857;27;20031;-72
2023/12/21 10:32:29;;;;;;;2.90;2.33;;;10.50;99.90;;;;;;5138234;27;20031;-75
2023/12/21 10:34:58;;;;;;;2.72;2.20;;;10.50;99.90;;;;;;5138557;27;20015;-75
2023/12/21 10:37:24;;;;;;;3.05;2.15;;;10.50;99.90;;;;;;5137397;27;20019;-76
2023/12/21 10:39:51;;;;;;;2.45;1.90;;;10.50;99.90;;;;;;5135328;27;20019;-74
2023/12/21 10:42:19;;;;;;;3.58;2.20;;;10.40;99.90;;;;;;5114442;27;20035;-76
2023/12/21 10:44:47;;;;;;;4.13;2.30;;;10.40;99.90;;;;;;5116010;28;20016;-75
2023/12/21 10:47:14;;;;;;;3.15;2.33;;;10.40;99.90;;;;;;5134170;27;20030;-76
2023/12/21 10:49:40;;;;;;;3.22;2.22;;;10.40;99.90;;;;;;5130426;27;20025;-76
2023/12/21 10:52:07;;;;;;;3.10;2.33;;;10.40;99.90;;;;;;5117325;27;20031;-75
2023/12/21 10:54:33;;;;;;;4.50;2.78;;;10.40;99.90;;;;;;5118496;27;20047;-77
2023/12/21 10:56:59;;;;;;;3.80;2.30;;;10.40;99.90;;;;;;5117962;27;20640;-77
2023/12/21 10:59:26;;;;;;;2.40;2.20;;;10.40;99.90;;;;;;5135512;27;20072;-77
2023/12/21 11:01:53;;;;;;;3.50;2.17;;;10.30;99.90;;;;;;5134035;27;20031;-75
2023/12/21 11:04:22;;;;;;;3.15;2.38;;;10.30;99.90;;;;;;5119001;27;20062;-76
2023/12/21 11:06:49;;;;;;;2.45;1.90;;;10.40;99.90;;;;;;5133340;27;20056;-78
2023/12/21 11:09:19;;;;;;;5.88;2.22;;;10.40;99.90;;;;;;5116931;27;20023;-81
2023/12/21 11:11:46;;;;;;;2.78;2.33;;;10.40;99.90;;;;;;5128590;27;20114;-79
2023/12/21 11:14:12;;;;;;;2.97;2.28;;;10.40;99.90;;;;;;5129291;27;20080;-77
2023/12/21 11:16:45;;;;;;;4.03;2.38;;;10.40;99.90;;;;;;5112900;27;20479;-77
2023/12/21 11:19:15;;;;;;;7.90;2.17;;;10.50;99.90;;;;;;5105211;27;20026;-80
2023/12/21 11:21:41;;;;;;;4.90;2.60;;;10.50;99.90;;;;;;5113704;27;20038;-80
2023/12/21 11:24:07;;;;;;;2.65;2.30;;;10.60;99.90;;;;;;5128403;27;20435;-80
2023/12/21 11:26:33;;;;;;;2.30;2.10;;;10.50;99.90;;;;;;5112716;27;20085;-80
2023/12/21 11:29:10;;;;;;;4.63;2.65;;;10.50;99.90;;;;;;5125675;27;20406;-81
2023/12/21 11:31:38;;;;;;;2.97;2.40;;;10.50;99.90;;;;;;5127386;27;20023;-78
2023/12/21 11:34:19;;;;;;;3.90;2.13;;;10.50;99.90;;;;;;5130243;27;20039;-77
2023/12/21 11:36:46;;;;;;;5.53;2.72;;;10.60;99.90;;;;;;5110473;27;20597;-78
2023/12/21 11:39:15;;;;;;;3.65;2.20;;;10.60;99.90;;;;;;5131107;27;20034;-76
2023/12/21 11:42:00;;;;;;;2.63;2.40;;;10.70;99.90;;;;;;5124326;27;20505;-77
2023/12/21 11:44:38;;;;;;;2.50;2.10;;;10.70;99.90;;;;;;5130125;27;20051;-78
2023/12/21 11:47:07;;;;;;;2.47;2.28;;;10.70;99.90;;;;;;5130712;27;20482;-76
2023/12/21 11:49:33;;;;;;;2.05;1.90;;;10.70;99.90;;;;;;5129053;27;20027;-75
2023/12/21 11:51:59;;;;;;;5.60;3.70;;;10.70;99.90;;;;;;5112844;27;20027;-77
2023/12/21 11:54:25;;;;;;;3.08;2.50;;;10.70;99.90;;;;;;5130647;27;20042;-74
2023/12/21 11:56:53;;;;;;;3.72;2.70;;;10.70;99.90;;;;;;5111682;27;20035;-78
2023/12/21 11:59:28;;;;;;;4.10;2.70;;;10.70;99.90;;;;;;5131170;27;20034;-77
2023/12/21 12:01:54;;;;;;;2.35;1.90;;;10.70;99.90;;;;;;5131388;27;20023;-77
2023/12/21 12:04:20;;;;;;;2.63;2.05;;;10.70;99.90;;;;;;5131808;27;20019;-78
2023/12/21 12:06:50;;;;;;;2.30;2.03;;;10.60;99.90;;;;;;5130316;27;20211;-75
2023/12/21 12:09:17;;;;;;;4.50;2.20;;;10.70;99.90;;;;;;5127645;27;20023;-79
2023/12/21 12:11:43;;;;;;;5.18;2.20;;;10.70;99.90;;;;;;5110352;27;20340;-76
2023/12/21 12:14:09;;;;;;;4.88;2.22;;;10.70;99.90;;;;;;5124456;27;20027;-76
2023/12/21 12:16:36;;;;;;;4.50;2.20;;;10.70;99.90;;;;;;5129648;27;20015;-76
2023/12/21 12:19:02;;;;;;;2.15;1.92;;;10.70;99.90;;;;;;5128956;27;20045;-79
2023/12/21 12:21:28;;;;;;;6.13;2.45;;;10.70;99.90;;;;;;5113019;27;20027;-78
2023/12/21 12:23:54;;;;;;;3.63;2.05;;;10.70;99.90;;;;;;5127198;27;20027;-75
2023/12/21 12:26:20;;;;;;;4.05;2.35;;;10.70;99.90;;;;;;5112067;27;20055;-80
2023/12/21 12:28:49;;;;;;;4.22;2.63;;;10.70;99.90;;;;;;5128917;27;20066;-79
2023/12/21 12:31:15;;;;;;;7.20;3.33;;;10.70;99.90;;;;;;5111680;27;20023;-76
2023/12/21 12:33:41;;;;;;;3.13;2.33;;;10.70;99.90;;;;;;5130698;27;20114;-80
2023/12/21 12:36:07;;;;;;;7.30;3.15;;;10.70;99.90;;;;;;5112879;27;20062;-77
2023/12/21 12:38:34;;;;;;;4.00;2.80;;;10.70;99.90;;;;;;5129816;27;20055;-76
2023/12/21 12:41:00;;;;;;;6.45;2.70;;;10.70;99.90;;;;;;5112708;27;20049;-77
2023/12/21 12:43:30;;;;;;;8.30;2.60;;;10.70;99.90;;;;;;5129837;27;20066;-77
2023/12/21 12:45:56;;;;;;;4.82;2.42;;;10.70;99.90;;;;;;5110874;27;20033;-78
2023/12/21 12:48:24;;;;;;;4.65;2.38;;;10.70;99.90;;;;;;5130250;27;20045;-78
2023/12/21 12:50:50;;;;;;;5.15;2.40;;;10.70;99.90;;;;;;5112157;27;20518;-76